sensor_id;sensor_type;location;lat;lon;timestamp;P1;durP1;ratioP1;P2;durP2;ratioP2
5965;SDS011;3009;43.224;27.976;2023-04-03T00:01:18;2.90;;;2.70;;
5965;SDS011;3009;43.224;27.976;2023-04-03T00:03:48;3.00;;;2.77;;
5965;SDS011;3009;43.224;27.976;2023-04-03T00:06:18;3.27;;;3.07;;
5965;SDS011;3009;43.224;27.976;2023-04-03T00:08:46;2.97;;;2.60;;
5965;SDS011;3009;43.224;27.976;2023-04-03T00:11:15;3.13;;;2.93;;
5965;SDS011;3009;43.224;27.976;2023-04-03T00:13:44;2.93;;;2.73;;
5965;SDS011;3009;43.224;27.976;2023-04-03T00:16:12;7.20;;;3.47;;
5965;SDS011;3009;43.224;27.976;2023-04-03T00:18:41;2.70;;;2.60;;
5965;SDS011;3009;43.224;27.976;2023-04-03T00:21:12;3.00;;;2.90;;
5965;SDS011;3009;43.224;27.976;2023-04-03T00:23:42;4.57;;;3.80;;
5965;SDS011;3009;43.224;27.976;2023-04-03T00:26:10;4.90;;;4.50;;
5965;SDS011;3009;43.224;27.976;2023-04-03T00:28:39;4.73;;;4.30;;
5965;SDS011;3009;43.224;27.976;2023-04-03T00:31:07;5.33;;;4.40;;
5965;SDS011;3009;43.224;27.976;2023-04-03T00:33:36;4.73;;;4.20;;
5965;SDS011;3009;43.224;27.976;2023-04-03T00:36:07;4.70;;;4.30;;
5965;SDS011;3009;43.224;27.976;2023-04-03T00:38:38;4.70;;;4.40;;
5965;SDS011;3009;43.224;27.976;2023-04-03T00:41:07;5.97;;;5.37;;
5965;SDS011;3009;43.224;27.976;2023-04-03T00:43:36;7.60;;;6.00;;
5965;SDS011;3009;43.224;27.976;2023-04-03T00:46:04;12.27;;;6.67;;
5965;SDS011;3009;43.224;27.976;2023-04-03T00:48:33;10.67;;;7.70;;
5965;SDS011;3009;43.224;27.976;2023-04-03T00:51:04;7.87;;;7.10;;
5965;SDS011;3009;43.224;27.976;2023-04-03T00:53:37;7.83;;;7.03;;
5965;SDS011;3009;43.224;27.976;2023-04-03T00:56:11;10.90;;;6.90;;
5965;SDS011;3009;43.224;27.976;2023-04-03T00:58:44;10.27;;;6.73;;
5965;SDS011;3009;43.224;27.976;2023-04-03T01:01:17;7.30;;;5.10;;
5965;SDS011;3009;43.224;27.976;2023-04-03T01:03:48;5.13;;;4.73;;
5965;SDS011;3009;43.224;27.976;2023-04-03T01:06:21;4.60;;;4.20;;
5965;SDS011;3009;43.224;27.976;2023-04-03T01:08:55;3.57;;;3.37;;
5965;SDS011;3009;43.224;27.976;2023-04-03T01:11:24;3.60;;;3.40;;
5965;SDS011;3009;43.224;27.976;2023-04-03T01:13:53;5.80;;;3.67;;
5965;SDS011;3009;43.224;27.976;2023-04-03T01:16:21;3.60;;;3.40;;
5965;SDS011;3009;43.224;27.976;2023-04-03T01:18:50;3.70;;;3.50;;
5965;SDS011;3009;43.224;27.976;2023-04-03T01:21:38;3.03;;;2.83;;
5965;SDS011;3009;43.224;27.976;2023-04-03T01:24:33;3.27;;;3.07;;
5965;SDS011;3009;43.224;27.976;2023-04-03T01:27:03;5.10;;;4.60;;
5965;SDS011;3009;43.224;27.976;2023-04-03T01:29:33;3.93;;;3.23;;
5965;SDS011;3009;43.224;27.976;2023-04-03T01:32:04;3.60;;;2.90;;
5965;SDS011;3009;43.224;27.976;2023-04-03T01:34:32;3.03;;;2.73;;
5965;SDS011;3009;43.224;27.976;2023-04-03T01:37:01;3.80;;;2.40;;
5965;SDS011;3009;43.224;27.976;2023-04-03T01:39:29;3.00;;;2.80;;
5965;SDS011;3009;43.224;27.976;2023-04-03T01:41:58;2.50;;;2.40;;
5965;SDS011;3009;43.224;27.976;2023-04-03T01:44:26;2.63;;;2.53;;
5965;SDS011;3009;43.224;27.976;2023-04-03T01:46:55;2.60;;;2.50;;
5965;SDS011;3009;43.224;27.976;2023-04-03T01:49:25;3.00;;;2.80;;
5965;SDS011;3009;43.224;27.976;2023-04-03T01:51:53;2.50;;;2.30;;
5965;SDS011;3009;43.224;27.976;2023-04-03T01:54:22;2.67;;;2.57;;
5965;SDS011;3009;43.224;27.976;2023-04-03T01:56:50;2.50;;;2.40;;
5965;SDS011;3009;43.224;27.976;2023-04-03T01:59:19;3.03;;;2.73;;
5965;SDS011;3009;43.224;27.976;2023-04-03T02:01:47;2.87;;;2.67;;
5965;SDS011;3009;43.224;27.976;2023-04-03T02:04:16;3.30;;;2.60;;
5965;SDS011;3009;43.224;27.976;2023-04-03T02:06:46;2.60;;;2.50;;
5965;SDS011;3009;43.224;27.976;2023-04-03T02:09:14;2.87;;;2.77;;
5965;SDS011;3009;43.224;27.976;2023-04-03T02:11:43;2.83;;;2.60;;
5965;SDS011;3009;43.224;27.976;2023-04-03T02:14:11;2.87;;;2.77;;
5965;SDS011;3009;43.224;27.976;2023-04-03T02:16:39;3.00;;;2.90;;
5965;SDS011;3009;43.224;27.976;2023-04-03T02:19:08;3.80;;;3.50;;
5965;SDS011;3009;43.224;27.976;2023-04-03T02:21:36;3.50;;;3.20;;
5965;SDS011;3009;43.224;27.976;2023-04-03T02:24:07;22.23;;;3.50;;
5965;SDS011;3009;43.224;27.976;2023-04-03T02:26:36;3.93;;;3.60;;
5965;SDS011;3009;43.224;27.976;2023-04-03T02:29:04;4.27;;;3.87;;
5965;SDS011;3009;43.224;27.976;2023-04-03T02:31:33;4.00;;;3.67;;
5965;SDS011;3009;43.224;27.976;2023-04-03T02:34:01;3.83;;;3.53;;
5965;SDS011;3009;43.224;27.976;2023-04-03T02:36:29;10.10;;;3.50;;
5965;SDS011;3009;43.224;27.976;2023-04-03T02:38:58;3.10;;;2.90;;
5965;SDS011;3009;43.224;27.976;2023-04-03T02:41:28;4.47;;;3.33;;
5965;SDS011;3009;43.224;27.976;2023-04-03T02:44:01;2.93;;;2.73;;
5965;SDS011;3009;43.224;27.976;2023-04-03T02:46:30;2.87;;;2.67;;
5965;SDS011;3009;43.224;27.976;2023-04-03T02:48:59;2.80;;;2.60;;
5965;SDS011;3009;43.224;27.976;2023-04-03T02:51:28;2.87;;;2.77;;
5965;SDS011;3009;43.224;27.976;2023-04-03T02:53:56;2.60;;;2.50;;
5965;SDS011;3009;43.224;27.976;2023-04-03T02:56:25;2.60;;;2.50;;
5965;SDS011;3009;43.224;27.976;2023-04-03T02:58:55;2.53;;;2.43;;
5965;SDS011;3009;43.224;27.976;2023-04-03T03:01:23;3.07;;;2.97;;
5965;SDS011;3009;43.224;27.976;2023-04-03T03:03:53;2.80;;;2.70;;
5965;SDS011;3009;43.224;27.976;2023-04-03T03:06:22;3.20;;;3.00;;
5965;SDS011;3009;43.224;27.976;2023-04-03T03:08:51;3.53;;;3.33;;
5965;SDS011;3009;43.224;27.976;2023-04-03T03:11:19;3.27;;;3.10;;
5965;SDS011;3009;43.224;27.976;2023-04-03T03:13:47;3.93;;;3.60;;
5965;SDS011;3009;43.224;27.976;2023-04-03T03:16:17;3.63;;;3.33;;
5965;SDS011;3009;43.224;27.976;2023-04-03T03:18:46;5.43;;;3.40;;
5965;SDS011;3009;43.224;27.976;2023-04-03T03:21:14;3.40;;;3.20;;
5965;SDS011;3009;43.224;27.976;2023-04-03T03:23:43;3.00;;;2.80;;
5965;SDS011;3009;43.224;27.976;2023-04-03T03:26:11;3.60;;;3.40;;
5965;SDS011;3009;43.224;27.976;2023-04-03T03:28:40;3.30;;;3.10;;
5965;SDS011;3009;43.224;27.976;2023-04-03T03:31:09;3.77;;;3.47;;
5965;SDS011;3009;43.224;27.976;2023-04-03T03:33:40;3.80;;;3.50;;
5965;SDS011;3009;43.224;27.976;2023-04-03T03:36:08;2.83;;;2.73;;
5965;SDS011;3009;43.224;27.976;2023-04-03T03:38:37;3.20;;;3.00;;
5965;SDS011;3009;43.224;27.976;2023-04-03T03:41:05;3.83;;;3.53;;
5965;SDS011;3009;43.224;27.976;2023-04-03T03:43:33;3.80;;;3.50;;
5965;SDS011;3009;43.224;27.976;2023-04-03T03:46:02;2.70;;;2.50;;
5965;SDS011;3009;43.224;27.976;2023-04-03T03:48:32;3.30;;;3.00;;
5965;SDS011;3009;43.224;27.976;2023-04-03T03:51:02;2.77;;;2.67;;
5965;SDS011;3009;43.224;27.976;2023-04-03T03:53:30;3.20;;;3.00;;
5965;SDS011;3009;43.224;27.976;2023-04-03T03:55:59;3.03;;;2.83;;
5965;SDS011;3009;43.224;27.976;2023-04-03T03:58:27;3.07;;;2.87;;
5965;SDS011;3009;43.224;27.976;2023-04-03T04:00:56;3.03;;;2.83;;
5965;SDS011;3009;43.224;27.976;2023-04-03T04:03:24;3.63;;;3.10;;
5965;SDS011;3009;43.224;27.976;2023-04-03T04:05:53;2.40;;;2.30;;
5965;SDS011;3009;43.224;27.976;2023-04-03T04:08:23;3.60;;;3.30;;
5965;SDS011;3009;43.224;27.976;2023-04-03T04:10:51;3.20;;;3.00;;
5965;SDS011;3009;43.224;27.976;2023-04-03T04:13:20;2.80;;;2.60;;
5965;SDS011;3009;43.224;27.976;2023-04-03T04:15:49;3.80;;;3.50;;
5965;SDS011;3009;43.224;27.976;2023-04-03T04:18:17;3.30;;;3.00;;
5965;SDS011;3009;43.224;27.976;2023-04-03T04:20:46;4.80;;;3.33;;
5965;SDS011;3009;43.224;27.976;2023-04-03T04:23:16;3.07;;;2.80;;
5965;SDS011;3009;43.224;27.976;2023-04-03T04:25:46;3.40;;;3.10;;
5965;SDS011;3009;43.224;27.976;2023-04-03T04:28:15;2.50;;;2.40;;
5965;SDS011;3009;43.224;27.976;2023-04-03T04:30:44;3.60;;;2.40;;
5965;SDS011;3009;43.224;27.976;2023-04-03T04:33:13;2.93;;;2.73;;
5965;SDS011;3009;43.224;27.976;2023-04-03T04:35:41;2.57;;;2.47;;
5965;SDS011;3009;43.224;27.976;2023-04-03T04:38:11;3.03;;;2.83;;
5965;SDS011;3009;43.224;27.976;2023-04-03T04:40:39;4.20;;;2.93;;
5965;SDS011;3009;43.224;27.976;2023-04-03T04:43:09;2.80;;;2.70;;
5965;SDS011;3009;43.224;27.976;2023-04-03T04:45:40;2.50;;;2.40;;
5965;SDS011;3009;43.224;27.976;2023-04-03T04:48:09;2.63;;;2.53;;
5965;SDS011;3009;43.224;27.976;2023-04-03T04:50:38;3.23;;;2.60;;
5965;SDS011;3009;43.224;27.976;2023-04-03T04:53:06;3.70;;;3.03;;
5965;SDS011;3009;43.224;27.976;2023-04-03T04:55:35;2.67;;;2.57;;
5965;SDS011;3009;43.224;27.976;2023-04-03T04:58:04;2.73;;;2.60;;
5965;SDS011;3009;43.224;27.976;2023-04-03T05:00:33;2.20;;;2.20;;
5965;SDS011;3009;43.224;27.976;2023-04-03T05:03:02;3.60;;;2.87;;
5965;SDS011;3009;43.224;27.976;2023-04-03T05:05:30;2.53;;;2.43;;
5965;SDS011;3009;43.224;27.976;2023-04-03T05:07:59;3.00;;;2.80;;
5965;SDS011;3009;43.224;27.976;2023-04-03T05:10:27;3.10;;;3.00;;
5965;SDS011;3009;43.224;27.976;2023-04-03T05:12:56;9.20;;;3.10;;
5965;SDS011;3009;43.224;27.976;2023-04-03T05:15:25;3.60;;;3.20;;
5965;SDS011;3009;43.224;27.976;2023-04-03T05:17:55;3.23;;;3.03;;
5965;SDS011;3009;43.224;27.976;2023-04-03T05:20:23;2.77;;;2.57;;
5965;SDS011;3009;43.224;27.976;2023-04-03T05:22:52;2.90;;;2.70;;
5965;SDS011;3009;43.224;27.976;2023-04-03T05:25:20;2.87;;;2.77;;
5965;SDS011;3009;43.224;27.976;2023-04-03T05:27:52;3.10;;;2.90;;
5965;SDS011;3009;43.224;27.976;2023-04-03T05:30:20;3.17;;;3.03;;
5965;SDS011;3009;43.224;27.976;2023-04-03T05:32:49;3.23;;;3.03;;
5965;SDS011;3009;43.224;27.976;2023-04-03T05:35:19;3.33;;;3.13;;
5965;SDS011;3009;43.224;27.976;2023-04-03T05:37:48;2.83;;;2.73;;
5965;SDS011;3009;43.224;27.976;2023-04-03T05:40:16;3.13;;;2.83;;
5965;SDS011;3009;43.224;27.976;2023-04-03T05:42:45;3.20;;;3.00;;
5965;SDS011;3009;43.224;27.976;2023-04-03T05:45:13;3.67;;;3.47;;
5965;SDS011;3009;43.224;27.976;2023-04-03T05:47:42;3.30;;;3.10;;
5965;SDS011;3009;43.224;27.976;2023-04-03T05:50:10;3.67;;;3.23;;
5965;SDS011;3009;43.224;27.976;2023-04-03T05:52:42;4.70;;;3.40;;
5965;SDS011;3009;43.224;27.976;2023-04-03T05:55:13;3.87;;;3.57;;
5965;SDS011;3009;43.224;27.976;2023-04-03T05:57:42;4.43;;;3.70;;
5965;SDS011;3009;43.224;27.976;2023-04-03T06:00:11;3.80;;;3.60;;
5965;SDS011;3009;43.224;27.976;2023-04-03T06:02:42;4.30;;;3.90;;
5965;SDS011;3009;43.224;27.976;2023-04-03T06:05:11;5.80;;;4.27;;
5965;SDS011;3009;43.224;27.976;2023-04-03T06:07:41;4.50;;;4.30;;
5965;SDS011;3009;43.224;27.976;2023-04-03T06:10:11;5.47;;;4.97;;
5965;SDS011;3009;43.224;27.976;2023-04-03T06:12:40;7.77;;;4.90;;
5965;SDS011;3009;43.224;27.976;2023-04-03T06:15:08;5.20;;;4.90;;
5965;SDS011;3009;43.224;27.976;2023-04-03T06:17:38;4.50;;;4.20;;
5965;SDS011;3009;43.224;27.976;2023-04-03T06:20:06;4.43;;;4.13;;
5965;SDS011;3009;43.224;27.976;2023-04-03T06:22:35;4.33;;;4.13;;
5965;SDS011;3009;43.224;27.976;2023-04-03T06:25:06;4.20;;;3.90;;
5965;SDS011;3009;43.224;27.976;2023-04-03T06:27:35;4.10;;;3.90;;
5965;SDS011;3009;43.224;27.976;2023-04-03T06:30:04;4.20;;;3.93;;
5965;SDS011;3009;43.224;27.976;2023-04-03T06:32:34;4.33;;;4.13;;
5965;SDS011;3009;43.224;27.976;2023-04-03T06:35:02;4.30;;;4.10;;
5965;SDS011;3009;43.224;27.976;2023-04-03T06:37:32;4.30;;;4.10;;
5965;SDS011;3009;43.224;27.976;2023-04-03T06:40:01;6.37;;;4.43;;
5965;SDS011;3009;43.224;27.976;2023-04-03T06:42:32;5.47;;;4.03;;
5965;SDS011;3009;43.224;27.976;2023-04-03T06:45:00;11.10;;;4.00;;
5965;SDS011;3009;43.224;27.976;2023-04-03T06:47:29;3.90;;;3.70;;
5965;SDS011;3009;43.224;27.976;2023-04-03T06:49:57;5.10;;;4.70;;
5965;SDS011;3009;43.224;27.976;2023-04-03T06:52:25;5.13;;;4.63;;
5965;SDS011;3009;43.224;27.976;2023-04-03T06:54:54;4.80;;;4.03;;
5965;SDS011;3009;43.224;27.976;2023-04-03T06:57:24;4.57;;;4.37;;
5965;SDS011;3009;43.224;27.976;2023-04-03T06:59:54;7.80;;;5.50;;
5965;SDS011;3009;43.224;27.976;2023-04-03T07:02:23;12.03;;;7.10;;
5965;SDS011;3009;43.224;27.976;2023-04-03T07:04:51;13.40;;;7.60;;
5965;SDS011;3009;43.224;27.976;2023-04-03T07:07:20;7.30;;;6.50;;
5965;SDS011;3009;43.224;27.976;2023-04-03T07:09:48;8.23;;;6.63;;
5965;SDS011;3009;43.224;27.976;2023-04-03T07:12:18;8.00;;;5.80;;
5965;SDS011;3009;43.224;27.976;2023-04-03T07:14:47;10.17;;;6.70;;
5965;SDS011;3009;43.224;27.976;2023-04-03T07:17:17;6.50;;;5.90;;
5965;SDS011;3009;43.224;27.976;2023-04-03T07:19:45;6.50;;;5.90;;
5965;SDS011;3009;43.224;27.976;2023-04-03T07:22:14;7.20;;;6.40;;
5965;SDS011;3009;43.224;27.976;2023-04-03T07:24:42;6.80;;;5.93;;
5965;SDS011;3009;43.224;27.976;2023-04-03T07:27:10;7.40;;;6.47;;
5965;SDS011;3009;43.224;27.976;2023-04-03T07:29:39;15.23;;;6.40;;
5965;SDS011;3009;43.224;27.976;2023-04-03T07:32:08;6.43;;;5.93;;
5965;SDS011;3009;43.224;27.976;2023-04-03T07:34:37;10.67;;;6.17;;
5965;SDS011;3009;43.224;27.976;2023-04-03T07:37:06;11.53;;;6.10;;
5965;SDS011;3009;43.224;27.976;2023-04-03T07:39:35;6.30;;;5.90;;
5965;SDS011;3009;43.224;27.976;2023-04-03T07:42:03;6.53;;;5.97;;
5965;SDS011;3009;43.224;27.976;2023-04-03T07:44:32;5.87;;;5.37;;
5965;SDS011;3009;43.224;27.976;2023-04-03T07:47:01;9.13;;;5.40;;
5965;SDS011;3009;43.224;27.976;2023-04-03T07:49:30;6.60;;;6.00;;
5965;SDS011;3009;43.224;27.976;2023-04-03T07:52:01;6.90;;;5.90;;
5965;SDS011;3009;43.224;27.976;2023-04-03T07:54:29;6.27;;;5.67;;
5965;SDS011;3009;43.224;27.976;2023-04-03T07:56:58;8.47;;;4.80;;
5965;SDS011;3009;43.224;27.976;2023-04-03T07:59:27;5.77;;;5.37;;
5965;SDS011;3009;43.224;27.976;2023-04-03T08:01:56;5.87;;;5.47;;
5965;SDS011;3009;43.224;27.976;2023-04-03T08:04:25;7.40;;;5.50;;
5965;SDS011;3009;43.224;27.976;2023-04-03T08:06:53;11.53;;;5.30;;
5965;SDS011;3009;43.224;27.976;2023-04-03T08:09:23;5.53;;;5.03;;
5965;SDS011;3009;43.224;27.976;2023-04-03T08:11:53;5.20;;;4.90;;
5965;SDS011;3009;43.224;27.976;2023-04-03T08:14:21;5.70;;;5.20;;
5965;SDS011;3009;43.224;27.976;2023-04-03T08:16:50;5.40;;;4.93;;
5965;SDS011;3009;43.224;27.976;2023-04-03T08:19:18;5.67;;;5.20;;
5965;SDS011;3009;43.224;27.976;2023-04-03T08:21:51;5.20;;;4.80;;
5965;SDS011;3009;43.224;27.976;2023-04-03T08:24:21;9.87;;;5.23;;
5965;SDS011;3009;43.224;27.976;2023-04-03T08:26:51;5.20;;;4.80;;
5965;SDS011;3009;43.224;27.976;2023-04-03T08:29:19;5.67;;;5.27;;
5965;SDS011;3009;43.224;27.976;2023-04-03T08:31:48;11.93;;;5.60;;
5965;SDS011;3009;43.224;27.976;2023-04-03T08:34:17;7.33;;;6.40;;
5965;SDS011;3009;43.224;27.976;2023-04-03T08:36:46;6.73;;;6.10;;
5965;SDS011;3009;43.224;27.976;2023-04-03T08:39:15;6.13;;;5.53;;
5965;SDS011;3009;43.224;27.976;2023-04-03T08:41:44;5.67;;;5.23;;
5965;SDS011;3009;43.224;27.976;2023-04-03T08:44:17;6.40;;;5.80;;
5965;SDS011;3009;43.224;27.976;2023-04-03T08:46:56;8.10;;;5.40;;
5965;SDS011;3009;43.224;27.976;2023-04-03T08:49:38;6.10;;;5.60;;
5965;SDS011;3009;43.224;27.976;2023-04-03T08:52:15;11.50;;;5.47;;
5965;SDS011;3009;43.224;27.976;2023-04-03T08:54:50;6.27;;;5.43;;
5965;SDS011;3009;43.224;27.976;2023-04-03T08:57:25;7.27;;;5.90;;
5965;SDS011;3009;43.224;27.976;2023-04-03T08:59:59;5.60;;;5.20;;
5965;SDS011;3009;43.224;27.976;2023-04-03T09:02:31;5.93;;;5.40;;
5965;SDS011;3009;43.224;27.976;2023-04-03T09:05:06;8.83;;;5.10;;
5965;SDS011;3009;43.224;27.976;2023-04-03T09:07:42;5.27;;;4.87;;
5965;SDS011;3009;43.224;27.976;2023-04-03T09:10:16;5.90;;;5.40;;
5965;SDS011;3009;43.224;27.976;2023-04-03T09:12:53;6.20;;;5.80;;
5965;SDS011;3009;43.224;27.976;2023-04-03T09:15:29;6.90;;;6.20;;
5965;SDS011;3009;43.224;27.976;2023-04-03T09:18:05;6.60;;;6.00;;
5965;SDS011;3009;43.224;27.976;2023-04-03T09:20:44;7.23;;;6.67;;
5965;SDS011;3009;43.224;27.976;2023-04-03T09:23:20;7.17;;;6.43;;
5965;SDS011;3009;43.224;27.976;2023-04-03T09:25:53;6.70;;;6.20;;
5965;SDS011;3009;43.224;27.976;2023-04-03T09:28:31;7.47;;;6.67;;
5965;SDS011;3009;43.224;27.976;2023-04-03T09:31:20;7.20;;;6.60;;
5965;SDS011;3009;43.224;27.976;2023-04-03T09:33:52;6.70;;;6.10;;
5965;SDS011;3009;43.224;27.976;2023-04-03T09:36:37;9.77;;;7.03;;
5965;SDS011;3009;43.224;27.976;2023-04-03T09:39:10;10.90;;;8.00;;
5965;SDS011;3009;43.224;27.976;2023-04-03T09:41:41;10.80;;;7.37;;
5965;SDS011;3009;43.224;27.976;2023-04-03T09:44:23;13.30;;;8.10;;
5965;SDS011;3009;43.224;27.976;2023-04-03T09:46:53;10.50;;;6.93;;
5965;SDS011;3009;43.224;27.976;2023-04-03T09:49:22;8.07;;;7.30;;
5965;SDS011;3009;43.224;27.976;2023-04-03T09:51:51;7.37;;;6.67;;
5965;SDS011;3009;43.224;27.976;2023-04-03T09:54:30;7.00;;;6.40;;
5965;SDS011;3009;43.224;27.976;2023-04-03T09:57:05;6.90;;;6.30;;
5965;SDS011;3009;43.224;27.976;2023-04-03T09:59:37;7.13;;;6.43;;
5965;SDS011;3009;43.224;27.976;2023-04-03T10:05:25;7.60;;;6.90;;
5965;SDS011;3009;43.224;27.976;2023-04-03T10:11:05;6.13;;;5.63;;
5965;SDS011;3009;43.224;27.976;2023-04-03T10:13:51;7.80;;;7.00;;
5965;SDS011;3009;43.224;27.976;2023-04-03T10:16:23;6.10;;;5.60;;
5965;SDS011;3009;43.224;27.976;2023-04-03T10:19:09;6.40;;;5.80;;
5965;SDS011;3009;43.224;27.976;2023-04-03T10:21:50;8.33;;;5.33;;
5965;SDS011;3009;43.224;27.976;2023-04-03T10:24:25;6.10;;;5.30;;
5965;SDS011;3009;43.224;27.976;2023-04-03T10:26:58;5.90;;;5.40;;
5965;SDS011;3009;43.224;27.976;2023-04-03T10:29:40;6.33;;;5.73;;
5965;SDS011;3009;43.224;27.976;2023-04-03T10:32:24;5.40;;;5.00;;
5965;SDS011;3009;43.224;27.976;2023-04-03T10:35:18;5.83;;;5.23;;
5965;SDS011;3009;43.224;27.976;2023-04-03T10:37:58;6.03;;;5.33;;
5965;SDS011;3009;43.224;27.976;2023-04-03T10:40:34;5.53;;;5.10;;
5965;SDS011;3009;43.224;27.976;2023-04-03T10:43:15;5.90;;;5.47;;
5965;SDS011;3009;43.224;27.976;2023-04-03T10:45:54;5.30;;;4.90;;
5965;SDS011;3009;43.224;27.976;2023-04-03T10:51:22;8.83;;;5.00;;
5965;SDS011;3009;43.224;27.976;2023-04-03T10:53:55;5.03;;;4.63;;
5965;SDS011;3009;43.224;27.976;2023-04-03T10:56:32;4.93;;;4.53;;
5965;SDS011;3009;43.224;27.976;2023-04-03T10:59:16;6.20;;;4.40;;
5965;SDS011;3009;43.224;27.976;2023-04-03T11:01:52;6.57;;;5.17;;
5965;SDS011;3009;43.224;27.976;2023-04-03T11:04:23;5.50;;;5.00;;
5965;SDS011;3009;43.224;27.976;2023-04-03T11:06:58;4.97;;;4.50;;
5965;SDS011;3009;43.224;27.976;2023-04-03T11:09:30;4.93;;;4.47;;
5965;SDS011;3009;43.224;27.976;2023-04-03T11:12:04;9.60;;;5.43;;
5965;SDS011;3009;43.224;27.976;2023-04-03T11:14:37;7.73;;;5.00;;
5965;SDS011;3009;43.224;27.976;2023-04-03T11:17:10;6.10;;;5.60;;
5965;SDS011;3009;43.224;27.976;2023-04-03T11:19:45;5.67;;;5.17;;
5965;SDS011;3009;43.224;27.976;2023-04-03T11:22:23;5.90;;;5.40;;
5965;SDS011;3009;43.224;27.976;2023-04-03T11:24:59;5.90;;;5.30;;
5965;SDS011;3009;43.224;27.976;2023-04-03T11:27:37;6.73;;;5.23;;
5965;SDS011;3009;43.224;27.976;2023-04-03T11:30:13;5.57;;;5.07;;
5965;SDS011;3009;43.224;27.976;2023-04-03T11:33:03;6.13;;;5.53;;
5965;SDS011;3009;43.224;27.976;2023-04-03T11:35:43;7.73;;;5.60;;
5965;SDS011;3009;43.224;27.976;2023-04-03T11:38:17;7.00;;;5.70;;
5965;SDS011;3009;43.224;27.976;2023-04-03T11:40:52;5.27;;;4.80;;
5965;SDS011;3009;43.224;27.976;2023-04-03T11:43:24;6.40;;;5.30;;
5965;SDS011;3009;43.224;27.976;2023-04-03T11:45:55;5.60;;;5.10;;
5965;SDS011;3009;43.224;27.976;2023-04-03T11:54:44;5.50;;;4.97;;
5965;SDS011;3009;43.224;27.976;2023-04-03T12:12:57;10.30;;;7.60;;
5965;SDS011;3009;43.224;27.976;2023-04-03T12:24:49;7.60;;;6.37;;
5965;SDS011;3009;43.224;27.976;2023-04-03T12:27:24;10.03;;;6.40;;
5965;SDS011;3009;43.224;27.976;2023-04-03T12:30:04;10.73;;;8.30;;
5965;SDS011;3009;43.224;27.976;2023-04-03T12:32:48;11.70;;;8.10;;
5965;SDS011;3009;43.224;27.976;2023-04-03T12:35:39;12.80;;;8.50;;
5965;SDS011;3009;43.224;27.976;2023-04-03T12:38:23;9.67;;;8.17;;
5965;SDS011;3009;43.224;27.976;2023-04-03T12:41:18;12.13;;;7.93;;
5965;SDS011;3009;43.224;27.976;2023-04-03T12:43:59;9.17;;;8.23;;
5965;SDS011;3009;43.224;27.976;2023-04-03T12:46:37;7.80;;;7.10;;
5965;SDS011;3009;43.224;27.976;2023-04-03T12:49:18;9.33;;;7.60;;
5965;SDS011;3009;43.224;27.976;2023-04-03T12:51:58;8.73;;;7.37;;
5965;SDS011;3009;43.224;27.976;2023-04-03T12:54:30;7.00;;;6.30;;
5965;SDS011;3009;43.224;27.976;2023-04-03T12:57:09;8.33;;;7.10;;
5965;SDS011;3009;43.224;27.976;2023-04-03T12:59:40;6.03;;;5.40;;
5965;SDS011;3009;43.224;27.976;2023-04-03T13:02:15;7.93;;;7.13;;
5965;SDS011;3009;43.224;27.976;2023-04-03T13:04:50;7.73;;;6.90;;
5965;SDS011;3009;43.224;27.976;2023-04-03T13:07:20;9.50;;;7.07;;
5965;SDS011;3009;43.224;27.976;2023-04-03T13:09:55;7.73;;;6.47;;
5965;SDS011;3009;43.224;27.976;2023-04-03T13:12:25;8.93;;;6.93;;
5965;SDS011;3009;43.224;27.976;2023-04-03T13:14:59;7.90;;;6.20;;
5965;SDS011;3009;43.224;27.976;2023-04-03T13:17:30;7.00;;;6.30;;
5965;SDS011;3009;43.224;27.976;2023-04-03T13:20:10;7.47;;;6.73;;
5965;SDS011;3009;43.224;27.976;2023-04-03T13:22:43;8.83;;;6.63;;
5965;SDS011;3009;43.224;27.976;2023-04-03T13:25:17;7.97;;;6.70;;
5965;SDS011;3009;43.224;27.976;2023-04-03T13:27:49;8.03;;;6.43;;
5965;SDS011;3009;43.224;27.976;2023-04-03T13:30:37;12.00;;;7.67;;
5965;SDS011;3009;43.224;27.976;2023-04-03T13:33:18;9.93;;;7.13;;
5965;SDS011;3009;43.224;27.976;2023-04-03T13:35:54;9.87;;;6.90;;
5965;SDS011;3009;43.224;27.976;2023-04-03T13:38:25;9.97;;;6.37;;
5965;SDS011;3009;43.224;27.976;2023-04-03T13:40:59;10.30;;;6.33;;
5965;SDS011;3009;43.224;27.976;2023-04-03T13:43:29;12.30;;;6.33;;
5965;SDS011;3009;43.224;27.976;2023-04-03T13:46:02;9.57;;;6.70;;
5965;SDS011;3009;43.224;27.976;2023-04-03T13:48:38;10.87;;;6.07;;
5965;SDS011;3009;43.224;27.976;2023-04-03T13:51:17;8.60;;;6.13;;
5965;SDS011;3009;43.224;27.976;2023-04-03T13:53:49;8.47;;;6.03;;
5965;SDS011;3009;43.224;27.976;2023-04-03T13:56:25;9.90;;;6.60;;
5965;SDS011;3009;43.224;27.976;2023-04-03T13:59:02;10.97;;;7.17;;
5965;SDS011;3009;43.224;27.976;2023-04-03T14:01:37;9.83;;;6.40;;
5965;SDS011;3009;43.224;27.976;2023-04-03T14:04:13;8.63;;;6.33;;
5965;SDS011;3009;43.224;27.976;2023-04-03T14:06:45;8.30;;;6.40;;
5965;SDS011;3009;43.224;27.976;2023-04-03T14:09:14;11.10;;;6.90;;
5965;SDS011;3009;43.224;27.976;2023-04-03T14:11:43;8.80;;;6.50;;
5965;SDS011;3009;43.224;27.976;2023-04-03T14:14:14;8.33;;;6.90;;
5965;SDS011;3009;43.224;27.976;2023-04-03T14:16:46;8.23;;;5.97;;
5965;SDS011;3009;43.224;27.976;2023-04-03T14:19:20;7.13;;;6.27;;
5965;SDS011;3009;43.224;27.976;2023-04-03T14:21:50;8.33;;;6.07;;
5965;SDS011;3009;43.224;27.976;2023-04-03T14:24:20;11.37;;;6.43;;
5965;SDS011;3009;43.224;27.976;2023-04-03T14:26:50;11.13;;;7.00;;
5965;SDS011;3009;43.224;27.976;2023-04-03T14:29:20;8.07;;;5.53;;
5965;SDS011;3009;43.224;27.976;2023-04-03T14:31:50;7.83;;;6.20;;
5965;SDS011;3009;43.224;27.976;2023-04-03T14:34:37;7.10;;;5.60;;
5965;SDS011;3009;43.224;27.976;2023-04-03T14:37:05;10.47;;;6.90;;
5965;SDS011;3009;43.224;27.976;2023-04-03T14:39:38;9.87;;;6.13;;
5965;SDS011;3009;43.224;27.976;2023-04-03T14:42:10;7.07;;;5.90;;
5965;SDS011;3009;43.224;27.976;2023-04-03T14:44:40;8.00;;;5.97;;
5965;SDS011;3009;43.224;27.976;2023-04-03T14:47:11;9.60;;;7.20;;
5965;SDS011;3009;43.224;27.976;2023-04-03T14:49:56;7.17;;;5.90;;
5965;SDS011;3009;43.224;27.976;2023-04-03T14:52:26;7.00;;;5.90;;
5965;SDS011;3009;43.224;27.976;2023-04-03T14:54:56;21.70;;;10.63;;
5965;SDS011;3009;43.224;27.976;2023-04-03T14:57:25;11.47;;;7.30;;
5965;SDS011;3009;43.224;27.976;2023-04-03T14:59:56;14.63;;;10.17;;
5965;SDS011;3009;43.224;27.976;2023-04-03T15:02:27;14.83;;;7.20;;
5965;SDS011;3009;43.224;27.976;2023-04-03T15:04:57;8.17;;;6.40;;
5965;SDS011;3009;43.224;27.976;2023-04-03T15:07:27;8.33;;;5.97;;
5965;SDS011;3009;43.224;27.976;2023-04-03T15:09:58;9.27;;;6.50;;
5965;SDS011;3009;43.224;27.976;2023-04-03T15:12:27;8.80;;;6.90;;
5965;SDS011;3009;43.224;27.976;2023-04-03T15:14:56;9.47;;;6.37;;
5965;SDS011;3009;43.224;27.976;2023-04-03T15:20:25;10.30;;;7.27;;
5965;SDS011;3009;43.224;27.976;2023-04-03T15:22:57;10.20;;;6.90;;
5965;SDS011;3009;43.224;27.976;2023-04-03T15:25:27;9.40;;;6.23;;
5965;SDS011;3009;43.224;27.976;2023-04-03T15:27:56;9.20;;;6.10;;
5965;SDS011;3009;43.224;27.976;2023-04-03T15:30:25;10.23;;;6.80;;
5965;SDS011;3009;43.224;27.976;2023-04-03T15:32:56;7.43;;;6.50;;
5965;SDS011;3009;43.224;27.976;2023-04-03T15:35:25;8.07;;;6.07;;
5965;SDS011;3009;43.224;27.976;2023-04-03T15:37:53;9.17;;;6.27;;
5965;SDS011;3009;43.224;27.976;2023-04-03T15:40:22;8.47;;;7.13;;
5965;SDS011;3009;43.224;27.976;2023-04-03T15:42:51;9.77;;;6.90;;
5965;SDS011;3009;43.224;27.976;2023-04-03T15:45:19;12.93;;;8.47;;
5965;SDS011;3009;43.224;27.976;2023-04-03T15:47:48;14.60;;;9.37;;
5965;SDS011;3009;43.224;27.976;2023-04-03T15:50:19;10.57;;;7.23;;
5965;SDS011;3009;43.224;27.976;2023-04-03T15:52:49;12.43;;;7.67;;
5965;SDS011;3009;43.224;27.976;2023-04-03T15:55:21;10.33;;;7.00;;
5965;SDS011;3009;43.224;27.976;2023-04-03T15:57:51;10.93;;;7.67;;
5965;SDS011;3009;43.224;27.976;2023-04-03T16:00:20;10.47;;;7.60;;
5965;SDS011;3009;43.224;27.976;2023-04-03T16:02:50;9.00;;;7.60;;
5965;SDS011;3009;43.224;27.976;2023-04-03T16:05:22;14.83;;;8.77;;
5965;SDS011;3009;43.224;27.976;2023-04-03T16:07:52;8.33;;;7.07;;
5965;SDS011;3009;43.224;27.976;2023-04-03T16:10:21;7.40;;;6.20;;